Terminal Aerodrome Forecast
Issued by NWS

Home | Current Version | Previous Version | Text Only | Print | Product List | Glossary On
Versions: 1 2 3 4 5 6 7 8 9 10 11 12 13 14
092
FTUS42 KTBW 250528
TAFPGD
TAF
KPGD 250528Z 2506/2606 23013G19KT P6SM SCT025 BKN040
     FM251900 28013G18KT P6SM SCT020 BKN035
     FM252300 29009KT P6SM FEW005 SCT200
     FM260200 31005KT P6SM FEW200=

USA.gov is the U.S. government's official web portal to all federal, state and local government web resources and services.